createdAt,value
2019-03-03T00:01:31.560Z,12.00
2019-03-03T00:04:00.532Z,11.90
2019-03-03T00:06:32.600Z,11.68
2019-03-03T00:09:01.548Z,11.38
2019-03-03T00:11:30.552Z,10.70
2019-03-03T00:13:59.401Z,10.20
2019-03-03T00:16:28.704Z,10.90
2019-03-03T00:18:57.684Z,10.48
2019-03-03T00:21:26.800Z,10.43
2019-03-03T00:23:55.937Z,10.23
2019-03-03T00:26:24.992Z,9.53
2019-03-03T00:28:53.964Z,9.80
2019-03-03T00:31:37.202Z,9.35
2019-03-03T00:34:06.246Z,9.73
2019-03-03T00:37:12.674Z,9.13
2019-03-03T00:39:48.971Z,9.05
2019-03-03T00:42:28.984Z,8.88
2019-03-03T00:45:06.751Z,9.50
2019-03-03T00:48:05.028Z,8.40
2019-03-03T00:50:41.281Z,8.55
2019-03-03T00:53:29.376Z,7.95
2019-03-03T00:56:16.978Z,7.78
2019-03-03T00:58:52.244Z,7.60
2019-03-03T01:01:39.103Z,7.60
2019-03-03T01:04:13.962Z,7.20
2019-03-03T01:07:01.352Z,7.30
2019-03-03T01:09:47.964Z,7.10
2019-03-03T01:12:29.444Z,7.25
2019-03-03T01:15:09.340Z,7.00
2019-03-03T01:17:50.692Z,7.10
2019-03-03T01:20:57.206Z,6.78
2019-03-03T01:23:45.143Z,6.65
2019-03-03T01:26:14.194Z,6.67
2019-03-03T01:28:43.196Z,6.47
2019-03-03T01:31:12.375Z,6.53
2019-03-03T01:33:41.353Z,6.27
2019-03-03T01:36:10.276Z,6.40
2019-03-03T01:38:39.192Z,6.60
2019-03-03T01:41:08.225Z,6.50
2019-03-03T01:43:37.405Z,6.05
2019-03-03T01:46:06.420Z,6.25
2019-03-03T01:48:35.465Z,5.97
2019-03-03T01:51:04.388Z,6.20
2019-03-03T01:53:33.539Z,5.60
2019-03-03T01:56:02.584Z,5.90
2019-03-03T01:58:31.572Z,5.60
2019-03-03T02:01:00.417Z,5.47
2019-03-03T02:03:30.024Z,5.30
2019-03-03T02:05:59.120Z,5.20
2019-03-03T02:08:28.133Z,4.72
2019-03-03T02:10:57.272Z,4.33
2019-03-03T02:13:26.187Z,4.58
2019-03-03T02:15:55.217Z,4.50
2019-03-03T02:18:24.302Z,4.53
2019-03-03T02:20:53.349Z,4.65
2019-03-03T02:23:22.216Z,4.40
2019-03-03T02:25:51.246Z,4.50
2019-03-03T02:28:20.010Z,4.28
2019-03-03T02:30:49.351Z,4.20
2019-03-03T02:33:18.560Z,3.90
2019-03-03T02:35:48.034Z,3.60
2019-03-03T02:38:17.068Z,3.50
2019-03-03T02:40:45.986Z,3.55
2019-03-03T02:43:15.311Z,3.50
2019-03-03T02:45:44.120Z,3.47
2019-03-03T02:48:12.939Z,3.40
2019-03-03T02:50:41.971Z,3.30
2019-03-03T02:53:10.751Z,3.50
2019-03-03T02:55:41.045Z,3.43
2019-03-03T02:58:09.886Z,3.10
2019-03-03T03:00:44.398Z,3.50
2019-03-03T03:03:13.286Z,3.30
2019-03-03T03:06:04.737Z,3.42
2019-03-03T03:08:39.727Z,3.30
2019-03-03T03:11:22.199Z,3.27
2019-03-03T03:14:15.376Z,3.30
2019-03-03T03:17:07.024Z,3.37
2019-03-03T03:19:43.877Z,3.53
2019-03-03T03:22:23.657Z,3.80
2019-03-03T03:25:08.024Z,3.65
2019-03-03T03:27:59.195Z,3.60
2019-03-03T03:30:40.901Z,3.52
2019-03-03T03:33:19.432Z,3.50
2019-03-03T03:36:02.531Z,3.47
2019-03-03T03:38:47.802Z,3.30
2019-03-03T03:41:38.715Z,3.60
2019-03-03T03:44:44.739Z,3.42
2019-03-03T03:47:20.530Z,3.75
2019-03-03T03:50:02.134Z,3.60
2019-03-03T03:52:53.915Z,3.70
2019-03-03T03:55:51.004Z,3.50
2019-03-03T03:58:30.620Z,3.70
2019-03-03T04:01:21.674Z,4.10
2019-03-03T04:04:08.575Z,4.00
2019-03-03T04:06:45.336Z,3.73
2019-03-03T04:09:36.321Z,3.92
2019-03-03T04:12:21.370Z,4.03
2019-03-03T04:15:27.832Z,3.60
2019-03-03T04:18:04.870Z,4.03
2019-03-03T04:20:48.990Z,4.10
2019-03-03T04:23:36.028Z,4.00
2019-03-03T04:26:30.114Z,4.10
2019-03-03T04:29:16.418Z,4.30
2019-03-03T04:32:16.695Z,4.30
2019-03-03T04:35:14.382Z,4.70
2019-03-03T04:37:53.222Z,4.50
2019-03-03T04:40:41.258Z,4.53
2019-03-03T04:43:31.910Z,4.30
2019-03-03T04:46:14.167Z,4.70
2019-03-03T04:49:17.582Z,4.97
2019-03-03T04:51:56.994Z,4.97
2019-03-03T04:54:33.651Z,4.97
2019-03-03T04:57:21.044Z,4.55
2019-03-03T05:00:03.726Z,4.92
2019-03-03T05:02:57.794Z,5.28
2019-03-03T05:05:43.457Z,5.45
2019-03-03T05:08:37.495Z,5.30
2019-03-03T05:11:20.030Z,5.67
2019-03-03T05:13:56.322Z,5.78
2019-03-03T05:16:43.110Z,5.90
2019-03-03T05:19:18.178Z,5.78
2019-03-03T05:21:46.987Z,5.97
2019-03-03T05:24:16.026Z,5.90
2019-03-03T05:26:45.098Z,6.15
2019-03-03T05:29:14.165Z,5.90
2019-03-03T05:31:43.059Z,6.20
2019-03-03T05:34:12.114Z,6.30
2019-03-03T05:36:41.307Z,6.17
2019-03-03T05:39:10.275Z,6.53
2019-03-03T05:41:39.351Z,6.55
2019-03-03T05:44:08.196Z,6.90
2019-03-03T05:46:36.961Z,6.70
2019-03-03T05:49:05.734Z,6.92
2019-03-03T05:51:35.132Z,7.08
2019-03-03T05:54:04.143Z,6.80
2019-03-03T05:56:32.938Z,6.95
2019-03-03T05:59:01.720Z,6.83
2019-03-03T06:01:30.778Z,6.85
2019-03-03T06:03:59.858Z,6.28
2019-03-03T06:06:28.717Z,6.05
2019-03-03T06:08:57.611Z,5.83
2019-03-03T06:11:27.267Z,5.92
2019-03-03T06:13:56.299Z,6.03
2019-03-03T06:16:25.111Z,5.87
2019-03-03T06:18:53.892Z,5.80
2019-03-03T06:21:22.718Z,5.80
2019-03-03T06:23:51.587Z,5.70
2019-03-03T06:26:20.498Z,5.15
2019-03-03T06:28:49.334Z,5.30
2019-03-03T06:31:18.133Z,5.20
2019-03-03T06:33:46.926Z,4.92
2019-03-03T06:36:15.706Z,4.87
2019-03-03T06:38:44.495Z,4.78
2019-03-03T06:41:13.318Z,4.63
2019-03-03T06:43:42.103Z,4.90
2019-03-03T06:46:16.651Z,4.60
2019-03-03T06:48:45.679Z,4.30
2019-03-03T06:51:14.521Z,4.53
2019-03-03T06:53:43.600Z,4.33
2019-03-03T06:56:12.354Z,4.50
2019-03-03T06:58:41.171Z,4.50
2019-03-03T07:01:09.964Z,4.67
2019-03-03T07:03:38.832Z,4.30
2019-03-03T07:06:07.694Z,4.20
2019-03-03T07:08:37.041Z,4.15
2019-03-03T07:11:05.951Z,3.80
2019-03-03T07:13:35.081Z,3.80
2019-03-03T07:16:06.369Z,3.72
2019-03-03T07:18:35.511Z,3.80
2019-03-03T07:21:05.586Z,3.90
2019-03-03T07:23:34.480Z,3.65
2019-03-03T07:26:03.292Z,4.00
2019-03-03T07:28:32.082Z,3.85
2019-03-03T07:31:00.924Z,4.00
2019-03-03T07:33:32.064Z,3.90
2019-03-03T07:36:01.267Z,3.90
2019-03-03T07:38:30.203Z,3.80
2019-03-03T07:40:59.107Z,3.87
2019-03-03T07:43:27.919Z,3.72
2019-03-03T07:45:56.702Z,4.03
2019-03-03T07:48:25.777Z,4.00
2019-03-03T07:50:54.650Z,3.85
2019-03-03T07:53:23.506Z,3.70
2019-03-03T07:55:52.578Z,4.00
2019-03-03T07:58:21.355Z,4.12
2019-03-03T08:00:50.235Z,3.75
2019-03-03T08:03:19.018Z,4.20
2019-03-03T08:05:47.810Z,4.10
2019-03-03T08:08:16.611Z,4.10
2019-03-03T08:10:45.395Z,4.15
2019-03-03T08:13:14.311Z,4.00
2019-03-03T08:15:43.403Z,4.08
2019-03-03T08:18:13.290Z,4.00
2019-03-03T08:20:42.142Z,3.93
2019-03-03T08:23:10.906Z,4.30
2019-03-03T08:25:39.780Z,4.10
2019-03-03T08:28:08.533Z,3.80
2019-03-03T08:30:37.318Z,3.92
2019-03-03T08:33:06.443Z,4.08
2019-03-03T08:35:35.251Z,4.10
2019-03-03T08:38:04.113Z,4.08
2019-03-03T08:40:32.858Z,3.70
2019-03-03T08:43:29.801Z,3.70
2019-03-03T08:46:14.441Z,3.70
2019-03-03T08:49:01.135Z,3.50
2019-03-03T08:51:57.018Z,3.25
2019-03-03T08:54:49.808Z,3.20
2019-03-03T08:57:56.074Z,3.33
2019-03-03T09:00:39.495Z,3.20
2019-03-03T09:03:27.554Z,3.12
2019-03-03T09:06:05.626Z,3.05
2019-03-03T09:08:42.942Z,3.12
2019-03-03T09:11:33.130Z,3.00
2019-03-03T09:14:12.949Z,2.87
2019-03-03T09:17:05.318Z,3.00
2019-03-03T09:19:59.135Z,2.80
2019-03-03T09:22:40.454Z,2.70
2019-03-03T09:25:19.382Z,2.83
2019-03-03T09:28:10.442Z,2.70
2019-03-03T09:31:11.063Z,2.97
2019-03-03T09:33:49.588Z,2.65
2019-03-03T09:36:26.702Z,2.70
2019-03-03T09:39:06.170Z,3.00
2019-03-03T09:41:57.474Z,2.50
2019-03-03T09:44:44.186Z,2.40
2019-03-03T09:47:38.562Z,2.70
2019-03-03T09:50:33.379Z,2.92
2019-03-03T09:53:24.362Z,2.70
2019-03-03T09:56:18.357Z,2.80
2019-03-03T09:59:18.587Z,2.70
2019-03-03T10:01:57.839Z,2.75
2019-03-03T10:04:44.724Z,2.95
2019-03-03T10:07:35.724Z,2.50
2019-03-03T10:10:21.095Z,2.80
2019-03-03T10:12:59.667Z,2.52
2019-03-03T10:15:38.027Z,2.87
2019-03-03T10:18:18.921Z,2.75
2019-03-03T10:21:03.328Z,2.80
2019-03-03T10:23:57.201Z,2.67
2019-03-03T10:26:47.941Z,2.75
2019-03-03T10:29:35.859Z,2.62
2019-03-03T10:32:29.962Z,2.98
2019-03-03T10:35:17.547Z,2.70
2019-03-03T10:38:05.468Z,2.90
2019-03-03T10:41:05.522Z,2.98
2019-03-03T10:43:50.291Z,2.95
2019-03-03T10:46:38.666Z,3.05
2019-03-03T10:49:36.054Z,2.95
2019-03-03T10:52:20.842Z,2.83
2019-03-03T10:55:12.379Z,2.90
2019-03-03T10:57:58.414Z,2.80
2019-03-03T11:00:31.908Z,2.62
2019-03-03T11:03:19.947Z,3.10
2019-03-03T11:06:20.051Z,3.02
2019-03-03T11:09:08.010Z,3.15
2019-03-03T11:11:59.495Z,3.33
2019-03-03T11:14:47.469Z,3.40
2019-03-03T11:17:44.695Z,3.40
2019-03-03T11:20:31.105Z,3.05
2019-03-03T11:23:07.542Z,3.10
2019-03-03T11:25:48.734Z,3.25
2019-03-03T11:28:36.712Z,3.10
2019-03-03T11:31:23.692Z,3.25
2019-03-03T11:34:18.090Z,3.27
2019-03-03T11:37:14.063Z,3.42
2019-03-03T11:39:54.866Z,3.30
2019-03-03T11:42:40.782Z,3.37
2019-03-03T11:45:24.799Z,3.20
2019-03-03T11:48:04.465Z,3.50
2019-03-03T11:50:49.506Z,3.55
2019-03-03T11:53:52.818Z,3.42
2019-03-03T11:56:46.886Z,3.60
2019-03-03T11:59:38.099Z,3.30
2019-03-03T12:02:36.999Z,3.27
2019-03-03T12:05:22.750Z,3.30
2019-03-03T12:08:13.502Z,3.20
2019-03-03T12:11:14.982Z,3.30
2019-03-03T12:14:15.118Z,3.20
2019-03-03T12:16:55.184Z,3.40
2019-03-03T12:19:43.039Z,3.72
2019-03-03T12:22:19.945Z,3.20
2019-03-03T12:24:58.334Z,3.12
2019-03-03T12:27:58.486Z,3.60
2019-03-03T12:30:49.503Z,3.40
2019-03-03T12:33:33.640Z,3.60
2019-03-03T12:36:27.890Z,3.20
2019-03-03T12:39:18.830Z,3.57
2019-03-03T12:42:06.091Z,3.10
2019-03-03T12:44:54.156Z,3.65
2019-03-03T12:47:38.572Z,3.20
2019-03-03T12:50:45.523Z,3.22
2019-03-03T12:53:23.314Z,3.30
2019-03-03T12:56:09.758Z,3.30
2019-03-03T12:58:48.215Z,3.22
2019-03-03T13:01:41.598Z,3.35
2019-03-03T13:04:29.843Z,3.30
2019-03-03T13:07:13.580Z,3.02
2019-03-03T13:10:09.006Z,3.12
2019-03-03T13:12:56.426Z,3.10
2019-03-03T13:15:59.703Z,2.98
2019-03-03T13:18:40.485Z,3.08
2019-03-03T13:21:37.650Z,3.20
2019-03-03T13:24:13.497Z,3.10
2019-03-03T13:26:49.413Z,3.10
2019-03-03T13:29:46.374Z,3.05
2019-03-03T13:32:26.431Z,3.10
2019-03-03T13:35:14.390Z,3.12
2019-03-03T13:38:08.355Z,3.08
2019-03-03T13:41:05.222Z,3.33
2019-03-03T13:43:34.420Z,3.08
2019-03-03T13:46:03.496Z,3.20
2019-03-03T13:48:32.595Z,3.37
2019-03-03T13:51:01.525Z,2.95
2019-03-03T14:08:33.802Z,2.98
2019-03-03T14:49:33.009Z,3.00
2019-03-03T14:52:02.207Z,3.08
2019-03-03T14:54:31.197Z,3.15
2019-03-03T14:57:00.407Z,2.93
2019-03-03T14:59:29.441Z,3.10
2019-03-03T15:01:58.401Z,3.30
2019-03-03T15:04:27.346Z,3.10
2019-03-03T15:06:56.322Z,3.17
2019-03-03T15:09:25.305Z,3.20
2019-03-03T15:11:54.299Z,3.33
2019-03-03T15:14:23.408Z,3.15
2019-03-03T15:25:44.881Z,3.40
2019-03-03T15:30:47.449Z,3.10
2019-03-03T15:40:11.678Z,3.00
2019-03-03T15:55:50.415Z,2.40
2019-03-03T15:58:55.238Z,2.70
2019-03-03T16:01:16.945Z,2.55
2019-03-03T16:03:45.853Z,2.60
2019-03-03T16:06:15.097Z,2.50
2019-03-03T16:08:44.219Z,2.70
2019-03-03T16:11:13.594Z,2.90
2019-03-03T16:13:42.735Z,2.90
2019-03-03T16:16:12.662Z,2.70
2019-03-03T16:18:41.664Z,2.67
2019-03-03T16:21:10.587Z,2.42
2019-03-03T16:23:39.714Z,2.80
2019-03-03T16:26:08.751Z,2.60
2019-03-03T16:28:38.201Z,2.60
2019-03-03T16:31:07.225Z,2.43
2019-03-03T16:33:36.068Z,2.40
2019-03-03T16:36:05.348Z,2.53
2019-03-03T16:38:34.369Z,2.52
2019-03-03T16:41:03.366Z,2.40
2019-03-03T16:43:32.316Z,2.70
2019-03-03T16:46:01.289Z,2.80
2019-03-03T16:48:30.358Z,2.10
2019-03-03T16:50:59.392Z,2.30
2019-03-03T16:53:28.405Z,2.30
2019-03-03T16:55:57.468Z,2.40
2019-03-03T16:58:26.396Z,2.40
2019-03-03T17:00:55.528Z,2.37
2019-03-03T17:03:24.456Z,2.30
2019-03-03T17:05:53.399Z,2.20
2019-03-03T17:08:22.325Z,2.40
2019-03-03T17:10:51.217Z,2.25
2019-03-03T17:13:20.231Z,2.30
2019-03-03T17:15:49.327Z,2.20
2019-03-03T17:18:18.475Z,2.20
2019-03-03T17:20:47.618Z,2.20
2019-03-03T17:23:16.669Z,2.47
2019-03-03T17:25:45.535Z,2.40
2019-03-03T17:28:14.479Z,2.30
2019-03-03T17:30:43.653Z,2.30
2019-03-03T18:19:09.113Z,3.90
2019-03-03T18:21:38.027Z,4.72
2019-03-03T18:24:07.001Z,4.20
2019-03-03T18:26:35.987Z,4.42
2019-03-03T18:29:04.927Z,6.67
2019-03-03T18:31:33.826Z,5.28
2019-03-03T18:34:02.719Z,5.17
2019-03-03T18:36:31.607Z,5.30
2019-03-03T18:39:00.666Z,5.87
2019-03-03T18:41:29.561Z,5.75
2019-03-03T18:43:58.467Z,5.80
2019-03-03T18:46:27.390Z,5.47
2019-03-03T18:48:56.751Z,5.33
2019-03-03T18:51:25.698Z,5.00
2019-03-03T18:53:56.846Z,4.40
2019-03-03T18:56:26.732Z,3.80
2019-03-03T18:58:55.851Z,4.10
2019-03-03T19:01:25.122Z,4.05
2019-03-03T19:03:54.958Z,4.20
2019-03-03T19:06:24.060Z,3.85
2019-03-03T19:08:53.137Z,3.65
2019-03-03T19:11:30.104Z,3.87
2019-03-03T19:14:14.052Z,3.77
2019-03-03T19:17:20.169Z,4.00
2019-03-03T19:20:12.977Z,4.00
2019-03-03T19:23:22.046Z,4.10
2019-03-03T19:26:06.579Z,4.33
2019-03-03T19:28:36.433Z,3.98
2019-03-03T19:31:05.576Z,3.92
2019-03-03T19:33:41.700Z,3.80
2019-03-03T19:36:10.667Z,3.60
2019-03-03T19:38:39.729Z,3.45
2019-03-03T19:41:08.855Z,3.10
2019-03-03T19:43:38.179Z,3.52
2019-03-03T19:46:07.494Z,3.67
2019-03-03T19:48:36.362Z,3.50
2019-03-03T19:51:05.678Z,3.50
2019-03-03T19:53:34.666Z,3.60
2019-03-03T19:56:03.558Z,3.50
2019-03-03T19:58:32.563Z,3.87
2019-03-03T20:01:01.563Z,3.67
2019-03-03T20:03:30.863Z,3.83
2019-03-03T20:05:59.702Z,3.97
2019-03-03T20:08:28.529Z,4.20
2019-03-03T20:10:57.438Z,4.57
2019-03-03T20:13:26.342Z,4.28
2019-03-03T20:15:55.234Z,4.60
2019-03-03T20:18:24.043Z,4.30
2019-03-03T20:20:52.886Z,4.95
2019-03-03T20:23:21.810Z,4.67
2019-03-03T20:25:50.771Z,4.60
2019-03-03T20:28:19.642Z,4.90
2019-03-03T20:30:49.126Z,4.50
2019-03-03T20:33:18.363Z,5.00
2019-03-03T20:35:52.095Z,4.60
2019-03-03T20:38:24.197Z,4.60
2019-03-03T20:40:53.592Z,4.70
2019-03-03T20:43:23.781Z,5.47
2019-03-03T20:45:58.098Z,5.35
2019-03-03T20:48:26.962Z,5.20
2019-03-03T20:50:59.888Z,5.70
2019-03-03T20:53:28.743Z,5.50
2019-03-03T20:56:00.679Z,5.33
2019-03-03T20:58:32.462Z,5.42
2019-03-03T21:01:01.338Z,5.43
2019-03-03T21:03:31.409Z,4.65
2019-03-03T21:06:01.346Z,4.37
2019-03-03T21:08:33.305Z,4.30
2019-03-03T21:11:02.359Z,4.10
2019-03-03T21:13:32.234Z,4.10
2019-03-03T21:16:01.260Z,4.33
2019-03-03T21:18:30.138Z,3.80
2019-03-03T21:36:03.873Z,3.70
2019-03-03T21:38:40.919Z,4.00
2019-03-03T21:41:30.787Z,3.83
2019-03-03T21:44:34.605Z,3.92
2019-03-03T21:47:42.297Z,3.85
2019-03-03T21:50:44.252Z,4.10
2019-03-03T21:53:38.058Z,3.65
2019-03-03T21:56:17.671Z,3.75
2019-03-03T21:58:52.259Z,3.65
2019-03-03T22:01:25.513Z,4.00
2019-03-03T22:03:58.550Z,4.90
2019-03-03T22:06:51.298Z,5.12
2019-03-03T22:09:30.080Z,4.67
2019-03-03T22:12:07.648Z,4.92
2019-03-03T22:14:41.052Z,5.22
2019-03-03T22:17:16.270Z,5.42
2019-03-03T22:19:53.248Z,5.50
2019-03-03T22:22:27.215Z,5.15
2019-03-03T22:25:44.140Z,5.10
2019-03-03T22:28:44.509Z,4.95
2019-03-03T22:31:29.675Z,4.95
2019-03-03T22:34:04.915Z,4.97
2019-03-03T22:36:45.107Z,5.17
2019-03-03T22:46:06.317Z,5.17
2019-03-03T22:48:35.228Z,4.97
2019-03-03T22:51:04.203Z,4.83
2019-03-03T22:53:33.321Z,5.00
2019-03-03T22:56:02.257Z,4.70
2019-03-03T22:58:31.187Z,4.67
2019-03-03T23:01:15.958Z,4.53
2019-03-03T23:04:02.702Z,4.50
2019-03-03T23:06:45.694Z,3.98
2019-03-03T23:09:53.290Z,4.20
2019-03-03T23:12:48.453Z,3.93
2019-03-03T23:15:37.307Z,3.98
2019-03-03T23:18:26.015Z,3.85
2019-03-03T23:21:20.051Z,3.80
2019-03-03T23:24:28.773Z,3.85
2019-03-03T23:26:57.662Z,4.08
2019-03-03T23:29:26.808Z,4.15
2019-03-03T23:31:55.640Z,3.70
2019-03-03T23:34:24.567Z,4.10
2019-03-03T23:36:53.451Z,3.92
2019-03-03T23:39:22.526Z,3.65
2019-03-03T23:41:51.518Z,3.75
2019-03-03T23:44:20.342Z,3.45
2019-03-03T23:46:49.614Z,3.50
2019-03-03T23:49:18.771Z,3.50
2019-03-03T23:51:47.930Z,3.75
2019-03-03T23:54:17.097Z,3.67
2019-03-03T23:56:46.018Z,3.20
2019-03-03T23:59:15.758Z,3.30
